Flight Track Log - Related Links

Times and Time Zones

All times are in EDT time to prevent confusion due to time zone crossing. See the N1253W flight status page for this flight to view local times or setup timezone preferences in your user account.

Time Position Orientation Groundspeed Altitude Reporting Facility
EDT Latitude Longitude Course Direction KTS MPH feet Rate Location/Type
Sat 11:57:00 AM 40.0764 -83.0847 259° West 119 137 1,200  Level Indianapolis Center
Sat 11:57:30 AM 40.0725 -83.1117 259° West 140 161 2,200 1,524 Climbing Indianapolis Center
Sat 11:58:03 AM 40.0600 -83.1339 234° Southwest 158 182 2,800 787 Climbing Indianapolis Center
Sat 11:58:31 AM 40.0417 -83.1625 230° Southwest 191 220 3,000 290 Climbing Indianapolis Center
Sat 11:59:05 AM 40.0236 -83.1872 226° Southwest 179 206 3,100 778 Climbing Indianapolis Center
Sat 11:59:25 AM 40.0014 -83.2014 206° Southwest 206 237 3,700 1,180 Climbing Indianapolis Center
Sat 12:00:06 PM 39.9689 -83.1903 165° South 198 228 4,300 1,529 Climbing Indianapolis Center
Sat 12:01:07 PM 39.9169 -83.1717 165° South 196 226 6,300 1,805 Climbing Indianapolis Center
Sat 12:02:09 PM 39.8658 -83.1461 159° South 193 222 8,000 1,707 Climbing Indianapolis Center
Sat 12:03:10 PM 39.8208 -83.0978 140° Southeast 213 245 9,800 1,561 Climbing Indianapolis Center
Sat 12:04:12 PM 39.7750 -83.0344 133° Southeast 233 268 11,200 1,610 Climbing Indianapolis Center
Sat 12:05:13 PM 39.7322 -82.9669 129° Southeast 238 274 13,100 1,707 Climbing Indianapolis Center
Sat 12:06:15 PM 39.6897 -82.9025 131° Southeast 234 269 14,700 1,415 Climbing Indianapolis Center
Sat 12:07:16 PM 39.6358 -82.8553 146° Southeast 231 266 16,000 1,377 Climbing Indianapolis Center
Sat 12:08:17 PM 39.5881 -82.8706 194° South 177 204 17,500 1,415 Climbing Indianapolis Center
Sat 12:09:19 PM 39.5419 -82.8897 198° South 173 199 18,900 1,463 Climbing Indianapolis Center
Sat 12:10:20 PM 39.4858 -82.9039 191° South 175 201 20,500 1,366 Climbing Indianapolis Center
Sat 12:11:22 PM 39.4386 -82.9206 195° South 173 199 21,700 1,171 Climbing Indianapolis Center
Sat 12:12:23 PM 39.3897 -82.9314 190° South 175 201 22,900 1,082 Climbing Indianapolis Center
Sat 12:13:24 PM 39.3436 -82.9453 193° South 171 197 23,900 1,024 Climbing Indianapolis Center
Sat 12:14:26 PM 39.2975 -82.9606 194° South 170 196 25,000 927 Climbing Indianapolis Center
Sat 12:15:27 PM 39.2511 -82.9722 191° South 168 193 25,800 492 Climbing Indianapolis Center
Sat 12:16:28 PM 39.2028 -82.9858 192° South 172 198 26,000 98 Climbing Indianapolis Center
Sat 12:17:30 PM 39.1500 -83.0022 194° South 190 219 26,000  Level Indianapolis Center
Sat 12:18:31 PM 39.0903 -83.0183 192° South 211 243 26,000  Level Indianapolis Center
Sat 12:19:32 PM 39.0278 -83.0364 193° South 225 259 26,000  Level Indianapolis Center
Sat 12:20:33 PM 38.9664 -83.0550 193° South 228 262 26,000  Level Indianapolis Center
Sat 12:21:35 PM 38.9044 -83.0728 193° South 228 262 26,000  Level Indianapolis Center
Sat 12:22:36 PM 38.8278 -83.0939 192° South 233 268 26,000  Level Indianapolis Center
Sat 12:23:37 PM 38.7658 -83.1122 193° South 229 264 26,000  Level Indianapolis Center
Sat 12:24:38 PM 38.7022 -83.1297 192° South 233 268 26,000  Level Indianapolis Center
Sat 12:25:40 PM 38.6386 -83.1486 193° South 230 265 26,000  Level Indianapolis Center
Sat 12:26:41 PM 38.5753 -83.1664 192° South 232 267 26,000  Level Indianapolis Center
Sat 12:27:42 PM 38.5125 -83.1833 192° South 231 266 26,000  Level Indianapolis Center
Sat 12:28:43 PM 38.4486 -83.2014 192° South 234 269 26,000  Level Indianapolis Center
Sat 12:29:44 PM 38.3850 -83.2208 193° South 235 270 26,000  Level Indianapolis Center
Sat 12:30:46 PM 38.3206 -83.2375 191° South 236 272 26,000  Level Indianapolis Center
Sat 12:31:47 PM 38.2561 -83.2569 193° South 238 274 26,000  Level Indianapolis Center
Sat 12:32:48 PM 38.1794 -83.2778 192° South 241 277 26,000  Level Indianapolis Center
Sat 12:33:49 PM 38.1133 -83.2969 193° South 243 280 26,000  Level Indianapolis Center
Sat 12:34:51 PM 38.0492 -83.3139 192° South 237 273 26,000  Level Indianapolis Center
Sat 12:35:52 PM 37.9839 -83.3311 192° South 238 274 26,000  Level Indianapolis Center
Sat 12:36:53 PM 37.9186 -83.3514 194° South 241 277 26,000  Level Indianapolis Center
Sat 12:37:54 PM 37.8539 -83.3689 192° South 239 275 26,000  Level Indianapolis Center
Sat 12:38:56 PM 37.7886 -83.3881 193° South 239 275 26,000  Level Indianapolis Center
Sat 12:39:57 PM 37.7239 -83.4053 192° South 238 274 26,000  Level Indianapolis Center
Sat 12:40:58 PM 37.6464 -83.4256 192° South 242 278 26,000  Level Indianapolis Center
Sat 12:42:00 PM 37.5825 -83.4433 192° South 237 273 26,000  Level Indianapolis Center
Sat 12:43:01 PM 37.5167 -83.4617 192° South 240 276 26,000  Level Indianapolis Center
Sat 12:44:02 PM 37.4514 -83.4794 192° South 240 276 26,000  Level Indianapolis Center
Sat 12:45:04 PM 37.3858 -83.4978 193° South 241 277 26,000  Level Indianapolis Center
Sat 12:46:05 PM 37.3203 -83.5153 192° South 241 277 26,000  Level Indianapolis Center
Sat 12:47:07 PM 37.2542 -83.5336 192° South 242 278 26,000  Level Indianapolis Center
Sat 12:48:08 PM 37.1881 -83.5517 192° South 242 278 26,000 -344 Level Indianapolis Center
Sat 12:49:09 PM 37.1100 -83.5739 193° South 247 284 25,300 -488 Descending Indianapolis Center
Sat 12:50:11 PM 37.0369 -83.5933 192° South 265 305 25,000 -146 Descending Indianapolis Center
Sat 12:51:12 PM 36.9681 -83.6108 191° South 255 293 25,000  Level Indianapolis Center
Sat 12:52:14 PM 36.9003 -83.6297 193° South 250 288 25,000  Level Indianapolis Center
Sat 12:53:15 PM 36.8325 -83.6478 192° South 250 288 25,000  Level Indianapolis Center
Sat 12:54:17 PM 36.7653 -83.6664 193° South 248 285 25,000  Level Indianapolis Center
Sat 12:55:18 PM 36.6981 -83.6847 192° South 248 285 25,000  Level Indianapolis Center
Sat 12:56:20 PM 36.6200 -83.7047 192° South 246 283 25,000  Level Indianapolis Center
Sat 12:57:21 PM 36.5533 -83.7233 193° South 245 282 25,000  Level Indianapolis Center
Sat 12:58:23 PM 36.4872 -83.7400 191° South 246 283 25,000  Level Indianapolis Center
Sat 12:59:24 PM 36.4214 -83.7575 192° South 243 280 25,000  Level Indianapolis Center
Sat 01:00:03 PM 36.3689 -83.7731 193° South 255 293 25,000  Level Atlanta Center
Sat 01:01:03 PM 36.3042 -83.7914 193° South 255 293 25,000  Level Atlanta Center
Sat 01:02:03 PM 36.2458 -83.8069 192° South 255 293 25,000  Level Atlanta Center
Sat 01:03:03 PM 36.1792 -83.8228 191° South 255 293 25,000  Level Atlanta Center
Sat 01:04:03 PM 36.1122 -83.8433 194° South 255 293 25,000  Level Atlanta Center
Sat 01:05:03 PM 36.0436 -83.8589 190° South 255 293 25,000  Level Atlanta Center
Sat 01:06:03 PM 35.9747 -83.8769 192° South 255 293 25,000  Level Atlanta Center
Sat 01:07:03 PM 35.9058 -83.8953 192° South 255 293 25,000 -100 Level Atlanta Center
Sat 01:08:03 PM 35.8286 -83.8800 171° South 260 299 24,800 -400 Descending Atlanta Center
Sat 01:09:03 PM 35.7472 -83.8622 170° South 283 326 24,200 -400 Descending Atlanta Center
Sat 01:10:03 PM 35.6658 -83.8444 170° South 297 342 24,000 -300 Descending Atlanta Center
Sat 01:11:03 PM 35.5844 -83.8294 171° South 297 342 23,600 -650 Descending Atlanta Center
Sat 01:12:03 PM 35.4989 -83.8167 173° South 297 342 22,700 -900 Descending Atlanta Center
Sat 01:13:03 PM 35.4197 -83.8272 186° South 297 342 21,800 -950 Descending Atlanta Center
Sat 01:14:03 PM 35.3383 -83.8403 187° South 297 342 20,800 -950 Descending Atlanta Center
Sat 01:15:03 PM 35.2486 -83.8581 189° South 297 342 19,900 -1,000 Descending Atlanta Center
Sat 01:16:03 PM 35.1653 -83.8711 187° South 297 342 18,800 -1,050 Descending Atlanta Center
Sat 01:17:03 PM 35.0797 -83.8864 188° South 302 348 17,800 -1,050 Descending Atlanta Center
Sat 01:18:03 PM 34.9922 -83.8994 187° South 307 353 16,700 -1,100 Descending Atlanta Center
Sat 01:19:03 PM 34.9086 -83.9172 190° South 312 359 15,600 -1,150 Descending Atlanta Center
Sat 01:20:03 PM 34.8253 -83.9275 186° South 312 359 14,400 -1,150 Descending Atlanta Center
Sat 01:21:03 PM 34.7417 -83.9453 190° South 312 359 13,300 -1,100 Descending Atlanta Center
Sat 01:22:03 PM 34.6708 -83.9556 187° South 317 365 12,200 -1,500 Descending Atlanta Center
Sat 01:23:03 PM 34.5914 -83.9858 197° South 289 333 10,300 -1,800 Descending Atlanta Center
Sat 01:24:03 PM 34.5228 -84.0236 204° Southwest 273 314 8,600 -1,150 Descending Atlanta Center
Sat 01:25:03 PM 34.4517 -84.0414 192° South 266 306 8,000 -300 Descending Atlanta Center
Sat 01:26:03 PM 34.3850 -84.0564 191° South 256 295 8,000  Level Atlanta Center
Sat 01:27:03 PM 34.3203 -84.0739 193° South 251 289 8,000  Level Atlanta Center
Sat 01:28:03 PM 34.2533 -84.1067 202° Southwest 241 277 8,000 -450 Level Atlanta Center
Sat 01:29:03 PM 34.1844 -84.1217 190° South 243 280 7,100 -900 Descending Atlanta Center
Sat 01:30:03 PM 34.1136 -84.1417 193° South 254 292 6,200 -963 Descending Atlanta Center
Sat 01:30:24 PM 34.0833 -84.1500 193° South 257 296 5,800 -889 Descending Atlanta TRACON
Sat 01:31:24 PM 34.0167 -84.1667 192° South 251 289 5,000 -900 Descending Atlanta TRACON
Sat 01:32:24 PM 33.9500 -84.1833 192° South 230 265 4,000 -500 Descending Atlanta TRACON
Sat 01:33:24 PM 33.9000 -84.1667 165° South 194 223 4,000  Level Atlanta TRACON
Sat 01:34:24 PM 33.8500 -84.1667 180° South 196 226 4,000  Level Atlanta TRACON
Sat 01:35:18 PM 33.8333 -84.2000 239° Southwest 184 212 4,000 -550 Level Atlanta TRACON
Sat 01:36:24 PM 33.8167 -84.2667 253° West 174 200 2,900 -905 Descending Atlanta TRACON
Sat 01:37:24 PM 33.8167 -84.3167 270° West 123 142 2,100 -694 Descending Atlanta TRACON
Sat 01:38:25 PM 33.8500 -84.3167 360° North 128 147 1,500 -590 Descending Atlanta TRACON
Sat 01:40:00 PM 33.8667 -84.3000 15° North  Level FlightAware Approximate

Login

Don't have an account? Register now (free) for customized features, flight alerts, and more!